Time;durP1;ratioP1;P1;durP2;ratioP2;P2;SDS_P1;SDS_P2;PMS_P1;PMS_P2;Temp;Humidity;BMP_temperature;BMP_pressure;BME280_temperature;BME280_humidity;BME280_pressure;Samples;Min_cycle;Max_cycle;Signal;HPM_P1;HPM_P2
2022/10/26 00:00:44;;;;;;;3.00;2.70;;;;;;;11.70;86.99;101616.88;6221440;28;20236;-73
2022/10/26 00:04:05;;;;;;;5.90;5.00;;;;;;;11.35;88.79;101626.94;6224559;28;20228;-73
2022/10/26 00:07:28;;;;;;;3.40;2.97;;;;;;;11.35;89.18;101618.84;6224045;28;20225;-73
2022/10/26 00:10:49;;;;;;;3.93;3.63;;;;;;;11.38;89.46;101618.59;6220638;28;20224;-74
2022/10/26 00:14:11;;;;;;;7.80;3.57;;;;;;;11.43;89.36;101613.69;6220111;28;20228;-73
2022/10/26 00:17:32;;;;;;;3.50;2.90;;;;;;;11.50;89.32;101626.56;6221722;28;20228;-74
2022/10/26 00:20:53;;;;;;;5.97;3.30;;;;;;;11.55;87.95;101613.56;6225343;28;20264;-72
2022/10/26 00:24:14;;;;;;;7.63;4.03;;;;;;;11.63;87.88;101621.03;6232458;28;20228;-73
2022/10/26 00:27:35;;;;;;;5.63;2.83;;;;;;;11.60;87.96;101614.03;6226690;28;20315;-73
2022/10/26 00:31:00;;;;;;;5.23;3.13;;;;;;;11.67;87.35;101615.28;6228183;28;20307;-74
2022/10/26 00:34:22;;;;;;;4.30;3.27;;;;;;;11.67;88.14;101617.13;6231437;28;20598;-74
2022/10/26 00:37:43;;;;;;;4.20;2.80;;;;;;;11.58;87.17;101620.53;6225264;28;20233;-74
2022/10/26 00:41:03;;;;;;;2.50;2.30;;;;;;;11.56;88.10;101614.41;6222841;28;20233;-74
2022/10/26 00:44:57;;;;;;;4.53;2.93;;;;;;;11.41;88.10;101615.66;6229426;28;20244;-74
2022/10/26 00:48:24;;;;;;;3.67;3.37;;;;;;;11.47;88.07;101624.13;6203222;28;20236;-73
2022/10/26 00:51:50;;;;;;;5.03;3.50;;;;;;;11.30;89.00;101629.16;6225141;28;20225;-72
2022/10/26 00:55:11;;;;;;;6.53;3.20;;;;;;;11.30;88.99;101624.63;6227899;28;20221;-74
2022/10/26 00:58:34;;;;;;;4.20;3.00;;;;;;;11.39;89.34;101621.16;6225225;28;20622;-74
2022/10/26 01:01:55;;;;;;;7.60;3.57;;;;;;;11.24;88.12;101628.66;6224097;28;21129;-74
2022/10/26 01:05:19;;;;;;;9.67;4.00;;;;;;;11.26;89.55;101621.28;6226891;28;20225;-72
2022/10/26 01:08:41;;;;;;;5.07;3.07;;;;;;;11.22;89.22;101609.00;6225307;28;20252;-72
2022/10/26 01:12:02;;;;;;;4.53;3.00;;;;;;;11.34;88.68;101617.13;6230738;28;20708;-73
2022/10/26 01:15:31;;;;;;;3.37;2.47;;;;;;;11.22;89.16;101618.97;6229201;28;20252;-73
2022/10/26 01:19:05;;;;;;;5.87;3.67;;;;;;;11.31;88.77;101620.91;6228714;28;20228;-73
2022/10/26 01:22:32;;;;;;;6.20;2.87;;;;;;;11.02;90.07;101619.66;6224450;28;20236;-73
2022/10/26 01:26:18;;;;;;;2.53;2.30;;;;;;;10.85;90.67;101620.13;6228639;28;20237;-74
2022/10/26 01:30:27;;;;;;;4.27;3.27;;;;;;;10.84;91.50;101610.34;6229697;28;20233;-73
2022/10/26 01:33:53;;;;;;;3.77;3.03;;;;;;;10.80;91.64;101607.03;6228707;28;20425;-73
2022/10/26 01:37:23;;;;;;;9.13;3.13;;;;;;;10.66;92.64;101607.22;6222706;28;20240;-73
2022/10/26 01:40:49;;;;;;;3.63;2.67;;;;;;;10.86;91.98;101609.25;6231734;28;20221;-74
2022/10/26 01:44:16;;;;;;;3.13;2.83;;;;;;;10.79;92.06;101608.00;6233248;28;20256;-73
2022/10/26 01:47:39;;;;;;;4.23;3.57;;;;;;;10.69;91.68;101611.53;6223707;28;20602;-73
2022/10/26 01:51:02;;;;;;;5.60;4.27;;;;;;;10.56;92.84;101603.53;6230225;28;20248;-73
2022/10/26 01:54:23;;;;;;;5.30;2.90;;;;;;;10.68;92.39;101609.81;6230528;28;20232;-73
2022/10/26 01:57:43;;;;;;;5.87;3.50;;;;;;;10.74;91.93;101612.03;6230528;28;20733;-72
2022/10/26 02:01:14;;;;;;;5.80;2.90;;;;;;;10.56;92.82;101614.31;6225609;28;20693;-74
2022/10/26 02:04:48;;;;;;;2.93;2.33;;;;;;;10.63;92.42;101610.16;6230908;28;20720;-72
2022/10/26 02:08:36;;;;;;;3.40;2.90;;;;;;;10.36;93.14;101606.91;6228220;28;20228;-73
2022/10/26 02:11:58;;;;;;;4.50;3.27;;;;;;;10.31;93.98;101612.63;6229746;28;20240;-73
2022/10/26 02:15:22;;;;;;;2.70;2.43;;;;;;;10.16;94.59;101610.22;6230737;28;20232;-74
2022/10/26 02:18:50;;;;;;;5.77;3.77;;;;;;;10.29;93.98;101608.31;6220983;28;20244;-72
2022/10/26 02:22:16;;;;;;;5.10;2.53;;;;;;;10.41;93.42;101607.38;6230501;28;20228;-72
2022/10/26 02:25:45;;;;;;;3.23;2.57;;;;;;;10.33;93.07;101607.97;6235010;28;20220;-72
2022/10/26 02:29:12;;;;;;;2.33;2.17;;;;;;;10.38;93.11;101604.94;6231043;28;20810;-74
2022/10/26 02:32:37;;;;;;;3.60;2.37;;;;;;;10.19;93.96;101607.31;6228400;28;20229;-74
2022/10/26 02:36:02;;;;;;;4.50;3.17;;;;;;;10.03;94.65;101604.91;6231070;28;20224;-74
2022/10/26 02:39:25;;;;;;;6.10;3.97;;;;;;;10.07;94.96;101600.13;6232153;28;20239;-73
2022/10/26 02:42:50;;;;;;;3.37;3.00;;;;;;;10.03;94.93;101602.19;6226726;28;20233;-74
2022/10/26 02:46:14;;;;;;;4.60;3.07;;;;;;;10.02;95.42;101603.16;6228312;28;20260;-72
2022/10/26 02:49:36;;;;;;;4.50;3.50;;;;;;;9.89;95.70;101602.34;6226315;28;20233;-73
2022/10/26 02:53:07;;;;;;;4.67;3.27;;;;;;;9.97;94.99;101593.72;6232801;28;20642;-73
2022/10/26 02:56:34;;;;;;;6.77;4.63;;;;;;;9.92;95.72;101590.50;6230457;28;20232;-73
2022/10/26 02:59:57;;;;;;;5.97;4.03;;;;;;;10.04;95.46;101595.81;6228739;28;20236;-73
2022/10/26 03:03:19;;;;;;;4.87;3.47;;;;;;;9.83;95.23;101597.41;6222591;28;20605;-72
2022/10/26 03:06:40;;;;;;;6.40;3.70;;;;;;;9.74;96.09;101600.81;6222539;28;20228;-72
2022/10/26 03:10:01;;;;;;;5.17;3.80;;;;;;;9.83;95.88;101593.84;6226614;28;20348;-72
2022/10/26 03:13:22;;;;;;;4.67;3.27;;;;;;;9.87;95.53;101595.34;6233455;28;20240;-72
2022/10/26 03:16:44;;;;;;;5.40;3.47;;;;;;;9.90;95.99;101592.44;6227671;28;20253;-73
2022/10/26 03:20:06;;;;;;;12.20;5.43;;;;;;;9.91;95.39;101599.56;6217619;28;20698;-73
2022/10/26 03:23:27;;;;;;;4.77;3.70;;;;;;;9.97;95.59;101596.41;6227693;28;20228;-73
2022/10/26 03:26:48;;;;;;;5.40;4.57;;;;;;;10.05;94.85;101585.91;6222444;28;20457;-73
2022/10/26 03:30:09;;;;;;;4.07;3.43;;;;;;;10.21;94.52;101589.19;6227923;28;20228;-73
2022/10/26 03:33:31;;;;;;;5.93;3.90;;;;;;;10.29;93.61;101586.78;6224996;28;20626;-73
2022/10/26 03:36:52;;;;;;;6.03;4.20;;;;;;;10.31;93.60;101583.00;6225624;28;20221;-73
2022/10/26 03:40:13;;;;;;;5.33;4.70;;;;;;;10.39;92.70;101588.66;6225845;28;20225;-72
2022/10/26 03:43:34;;;;;;;5.40;4.73;;;;;;;10.23;92.50;101588.09;6230859;28;20609;-73
2022/10/26 03:46:55;;;;;;;5.40;4.10;;;;;;;10.06;93.78;101591.19;6224108;28;20236;-73
2022/10/26 03:50:20;;;;;;;11.07;4.33;;;;;;;10.01;94.30;101592.50;6227103;28;20225;-73
2022/10/26 03:53:40;;;;;;;5.03;3.73;;;;;;;10.15;93.32;101601.31;6229532;28;20621;-72
2022/10/26 03:57:01;;;;;;;5.70;3.40;;;;;;;10.22;93.08;101590.94;6226610;28;20232;-73
2022/10/26 04:00:22;;;;;;;4.87;3.83;;;;;;;10.08;92.63;101594.63;6222581;28;20496;-73
2022/10/26 04:03:43;;;;;;;12.93;11.33;;;;;;;10.27;92.68;101589.59;6224937;28;20641;-73
2022/10/26 04:07:05;;;;;;;10.47;5.20;;;;;;;9.95;92.99;101588.41;6226113;28;20236;-73
2022/10/26 04:10:27;;;;;;;6.90;4.43;;;;;;;9.71;94.39;101589.38;6227811;28;20228;-73
2022/10/26 04:13:48;;;;;;;6.50;4.93;;;;;;;9.79;94.73;101590.53;6226712;28;20312;-73
2022/10/26 04:17:10;;;;;;;7.23;5.63;;;;;;;9.86;94.46;101589.13;6225312;28;20232;-72
2022/10/26 04:20:33;;;;;;;7.73;5.03;;;;;;;9.90;94.15;101596.00;6223368;28;20237;-72
2022/10/26 04:23:55;;;;;;;6.40;3.90;;;;;;;10.02;93.44;101594.22;6227414;28;20349;-73
2022/10/26 04:27:16;;;;;;;8.20;4.83;;;;;;;9.98;93.38;101596.28;6224956;28;20369;-73
2022/10/26 04:30:37;;;;;;;5.60;4.77;;;;;;;10.08;93.34;101586.53;6222754;28;20228;-72
2022/10/26 04:33:58;;;;;;;8.03;3.83;;;;;;;9.97;93.27;101581.06;6227594;28;20255;-73
2022/10/26 04:37:19;;;;;;;11.13;5.07;;;;;;;9.80;93.22;101583.31;6222071;28;20228;-72
2022/10/26 04:40:41;;;;;;;5.53;3.47;;;;;;;9.83;94.04;101581.25;6227105;28;20599;-72
2022/10/26 04:44:02;;;;;;;5.90;4.47;;;;;;;9.72;94.72;101581.19;6230643;28;20228;-72
2022/10/26 04:47:23;;;;;;;8.87;4.23;;;;;;;9.70;94.88;101569.66;6228842;28;20244;-73
2022/10/26 04:50:44;;;;;;;6.10;4.33;;;;;;;9.88;94.34;101573.72;6221664;28;20623;-72
2022/10/26 04:54:05;;;;;;;12.13;5.83;;;;;;;10.09;93.92;101573.94;6231053;28;20236;-72
2022/10/26 04:57:27;;;;;;;13.47;6.17;;;;;;;9.72;94.60;101575.81;6228269;28;20245;-72
2022/10/26 05:00:48;;;;;;;15.57;6.37;;;;;;;9.52;95.33;101568.34;6210333;28;20220;-71
2022/10/26 05:04:08;;;;;;;9.33;6.30;;;;;;;9.68;95.29;101576.16;6219946;28;20232;-72
2022/10/26 05:07:29;;;;;;;13.27;5.30;;;;;;;9.53;95.65;101572.78;6204779;28;20252;-73
2022/10/26 05:10:51;;;;;;;6.67;4.93;;;;;;;9.66;95.72;101577.13;6201672;28;20686;-73
2022/10/26 05:14:13;;;;;;;8.47;6.07;;;;;;;9.70;95.25;101576.91;6210299;28;22279;-73
2022/10/26 05:17:34;;;;;;;9.83;7.03;;;;;;;9.87;94.50;101582.75;6206609;28;20617;-73
2022/10/26 05:20:55;;;;;;;10.27;6.50;;;;;;;9.87;94.69;101580.06;6225385;28;20260;-73
2022/10/26 05:24:16;;;;;;;9.07;5.67;;;;;;;9.67;94.78;101572.59;6214128;28;20228;-73
2022/10/26 05:27:37;;;;;;;8.83;5.07;;;;;;;9.78;94.69;101566.44;6215226;28;20311;-73
2022/10/26 05:30:59;;;;;;;10.30;6.50;;;;;;;9.85;94.56;101567.66;6217869;28;20236;-73
2022/10/26 05:34:20;;;;;;;9.27;5.90;;;;;;;9.94;94.25;101567.00;6215575;28;20236;-73
2022/10/26 05:37:40;;;;;;;7.10;5.13;;;;;;;9.83;94.35;101569.63;6219679;28;20320;-72
2022/10/26 05:41:01;;;;;;;7.93;6.17;;;;;;;9.78;95.21;101571.81;6205588;28;20233;-73
2022/10/26 05:44:22;;;;;;;11.60;6.47;;;;;;;9.77;94.40;101570.94;6222812;28;20252;-74
2022/10/26 05:47:45;;;;;;;8.37;5.03;;;;;;;9.91;95.04;101573.47;6211348;28;20228;-74
2022/10/26 05:51:06;;;;;;;9.37;6.13;;;;;;;9.90;94.85;101574.47;6222967;28;20258;-72
2022/10/26 05:54:27;;;;;;;9.23;5.30;;;;;;;9.87;94.63;101568.41;6208269;28;20236;-72
2022/10/26 05:57:49;;;;;;;8.67;5.17;;;;;;;9.93;94.37;101581.44;6218099;28;20232;-73
2022/10/26 06:01:17;;;;;;;10.80;6.27;;;;;;;9.97;94.51;101580.25;6224235;28;20505;-73
2022/10/26 06:05:02;;;;;;;6.47;5.00;;;;;;;10.08;93.94;101588.34;6194124;28;20233;-72
2022/10/26 06:08:26;;;;;;;12.50;6.00;;;;;;;10.11;92.71;101585.47;6222957;28;20229;-72
2022/10/26 06:11:47;;;;;;;6.97;4.77;;;;;;;9.95;93.04;101582.19;6229003;28;20236;-73
2022/10/26 06:15:12;;;;;;;7.10;4.67;;;;;;;9.83;93.56;101589.34;6226475;28;20225;-72
2022/10/26 06:18:47;;;;;;;8.33;5.43;;;;;;;9.82;93.82;101589.47;6227805;28;20354;-73
2022/10/26 06:22:27;;;;;;;7.30;5.30;;;;;;;9.79;93.56;101595.06;6233988;28;20240;-72
2022/10/26 06:25:57;;;;;;;7.80;5.30;;;;;;;9.78;93.34;101596.91;6223793;28;20308;-72
2022/10/26 06:29:28;;;;;;;6.50;4.83;;;;;;;9.81;93.62;101590.41;6227573;28;20229;-73
2022/10/26 06:32:52;;;;;;;7.43;4.90;;;;;;;9.87;93.54;101598.91;6230305;28;20229;-72
2022/10/26 06:36:22;;;;;;;5.07;4.27;;;;;;;9.88;93.48;101603.34;6225058;28;20235;-72
2022/10/26 06:39:47;;;;;;;7.90;5.13;;;;;;;9.70;93.80;101598.44;6236008;28;20228;-73
2022/10/26 06:43:16;;;;;;;5.80;5.03;;;;;;;9.73;94.33;101598.22;6226567;28;20236;-74
2022/10/26 06:46:43;;;;;;;12.07;6.33;;;;;;;9.77;94.42;101595.19;6227808;28;20614;-73
2022/10/26 06:50:14;;;;;;;5.43;4.73;;;;;;;9.62;95.59;101607.06;6229488;28;20237;-73
2022/10/26 06:53:43;;;;;;;6.80;4.00;;;;;;;9.94;94.76;101604.69;6228757;28;20651;-73
2022/10/26 06:57:09;;;;;;;5.30;4.60;;;;;;;9.88;94.22;101607.84;6225442;28;20336;-73
2022/10/26 07:00:31;;;;;;;8.40;5.17;;;;;;;9.90;94.70;101612.16;6236004;28;20229;-72
2022/10/26 07:03:52;;;;;;;7.80;5.03;;;;;;;10.02;93.74;101611.25;6233051;28;20635;-72
2022/10/26 07:07:15;;;;;;;8.20;4.70;;;;;;;10.17;93.07;101612.81;6225018;28;20330;-71
2022/10/26 07:10:38;;;;;;;5.83;5.23;;;;;;;10.26;92.60;101619.34;6227704;28;20240;-71
2022/10/26 07:14:00;;;;;;;6.63;5.30;;;;;;;10.19;93.03;101615.38;6235672;28;20228;-72
2022/10/26 07:17:21;;;;;;;6.33;4.70;;;;;;;10.24;93.30;101610.53;6234297;28;20248;-71
2022/10/26 07:20:41;;;;;;;13.90;5.57;;;;;;;10.35;93.04;101624.03;6216749;28;20252;-72
2022/10/26 07:24:03;;;;;;;7.07;5.20;;;;;;;10.53;92.52;101628.03;6252276;28;20592;-72
2022/10/26 07:27:24;;;;;;;6.80;4.87;;;;;;;10.51;91.88;101630.00;6235612;28;20256;-72
2022/10/26 07:30:45;;;;;;;6.07;5.43;;;;;;;10.51;91.88;101626.44;6234220;28;20224;-72
2022/10/26 07:34:06;;;;;;;6.00;5.43;;;;;;;10.64;91.97;101632.59;6229212;28;20594;-73
2022/10/26 07:37:27;;;;;;;7.30;5.13;;;;;;;10.80;91.07;101635.84;6228374;28;20331;-73
2022/10/26 07:40:49;;;;;;;7.97;5.23;;;;;;;10.98;90.65;101637.09;6232469;28;20228;-73
2022/10/26 07:44:10;;;;;;;6.73;5.77;;;;;;;11.00;90.51;101644.09;6235851;28;20228;-72
2022/10/26 07:47:32;;;;;;;6.67;4.53;;;;;;;11.10;89.87;101628.03;6232000;28;20256;-72
2022/10/26 07:50:52;;;;;;;9.23;5.23;;;;;;;11.17;90.23;101623.88;6228826;28;20226;-73
2022/10/26 07:54:13;;;;;;;6.33;4.40;;;;;;;11.14;90.33;101622.25;6233850;28;20630;-74
2022/10/26 07:57:34;;;;;;;8.63;4.50;;;;;;;11.40;89.12;101625.59;6231295;28;20501;-73
2022/10/26 08:00:55;;;;;;;6.03;4.60;;;;;;;11.30;89.31;101619.22;6216548;28;20244;-74
2022/10/26 08:04:18;;;;;;;4.90;4.50;;;;;;;11.59;90.03;101630.38;6231141;28;20224;-75
2022/10/26 08:07:42;;;;;;;8.10;3.87;;;;;;;11.56;90.31;101633.31;6225200;28;20587;-77
2022/10/26 08:11:04;;;;;;;5.70;4.00;;;;;;;11.62;89.11;101628.25;6227505;28;20229;-76
2022/10/26 08:14:25;;;;;;;5.80;4.63;;;;;;;12.06;88.78;101631.94;6236332;28;20252;-75
2022/10/26 08:17:46;;;;;;;5.63;5.13;;;;;;;12.07;86.73;101631.78;6237504;28;20612;-74
2022/10/26 08:21:12;;;;;;;8.83;5.13;;;;;;;11.93;87.23;101637.47;6233586;28;20232;-72
2022/10/26 08:24:32;;;;;;;7.47;4.07;;;;;;;11.83;87.37;101636.50;6235337;28;20236;-72
2022/10/26 08:27:54;;;;;;;5.40;3.67;;;;;;;11.91;87.10;101636.75;6223461;28;20247;-73
2022/10/26 08:31:15;;;;;;;5.63;4.37;;;;;;;11.91;87.20;101643.00;6240242;28;20228;-72
2022/10/26 08:34:35;;;;;;;4.30;3.90;;;;;;;11.94;87.54;101639.19;6234974;28;20637;-72
2022/10/26 08:37:57;;;;;;;5.30;3.63;;;;;;;12.28;87.03;101632.69;6240252;28;20224;-73
2022/10/26 08:41:25;;;;;;;4.87;3.80;;;;;;;12.75;85.44;101634.06;6230817;28;20235;-74
2022/10/26 08:44:47;;;;;;;6.30;4.03;;;;;;;12.73;84.18;101628.78;6229091;28;20319;-73
2022/10/26 08:48:14;;;;;;;6.30;4.13;;;;;;;12.74;84.20;101624.25;6235006;28;20716;-73
2022/10/26 08:51:39;;;;;;;5.83;4.93;;;;;;;13.12;82.91;101629.91;6241163;28;20232;-73
2022/10/26 08:55:04;;;;;;;5.50;4.33;;;;;;;13.30;81.86;101620.19;6233650;28;20316;-73
2022/10/26 08:58:30;;;;;;;4.50;3.63;;;;;;;14.66;78.23;101617.63;6234159;28;20232;-73
2022/10/26 09:01:50;;;;;;;6.43;3.93;;;;;;;16.49;70.63;101611.22;6234581;28;20224;-74
2022/10/26 09:05:16;;;;;;;6.43;3.33;;;;;;;17.88;61.95;101608.22;6237275;28;20522;-73
2022/10/26 09:08:46;;;;;;;4.63;3.45;;;;;;;18.89;58.46;101599.69;6226541;28;20598;-74
2022/10/26 09:12:17;;;;;;;7.88;4.70;;;;;;;21.81;51.55;101592.06;6232460;28;20232;-73
2022/10/26 09:15:49;;;;;;;4.40;2.95;;;;;;;22.28;49.10;101590.53;6237191;28;20243;-72
2022/10/26 09:19:26;;;;;;;3.95;2.80;;;;;;;23.62;45.58;101590.41;6232841;28;20257;-73
2022/10/26 09:22:53;;;;;;;2.00;1.90;;;;;;;24.71;43.04;101587.41;6232385;28;20228;-73
2022/10/26 09:26:21;;;;;;;2.58;2.15;;;;;;;25.58;40.52;101588.00;6231390;28;20688;-73
2022/10/26 09:29:44;;;;;;;6.45;3.75;;;;;;;24.66;42.09;101576.13;6230421;28;20228;-73
2022/10/26 09:33:14;;;;;;;4.60;3.05;;;;;;;23.15;46.01;101582.06;6229292;28;20279;-73
2022/10/26 09:36:35;;;;;;;5.90;2.83;;;;;;;24.44;43.10;101582.91;6233505;28;20232;-72
2022/10/26 09:40:05;;;;;;;4.88;3.40;;;;;;;26.69;39.07;101581.91;6227263;28;20240;-73
2022/10/26 09:43:32;;;;;;;10.40;7.07;;;;;;;28.60;35.12;101583.44;6229267;28;20462;-72
2022/10/26 09:47:01;;;;;;;5.50;3.38;;;;;;;29.81;33.19;101578.94;6227910;28;20224;-73
2022/10/26 09:50:27;;;;;;;4.40;3.58;;;;;;;29.43;34.82;101587.78;6228529;28;20510;-72
2022/10/26 09:53:48;;;;;;;3.55;2.40;;;;;;;29.10;33.66;101585.56;6228026;28;20260;-73
2022/10/26 09:57:12;;;;;;;6.95;6.22;;;;;;;29.78;32.47;101583.03;6226307;28;20240;-73
2022/10/26 10:00:34;;;;;;;3.67;2.50;;;;;;;30.35;32.48;101578.41;6230577;28;20363;-73
2022/10/26 10:04:10;;;;;;;3.42;2.13;;;;;;;31.23;30.26;101580.50;6218604;28;20236;-73
2022/10/26 10:07:31;;;;;;;4.07;2.47;;;;;;;32.73;28.37;101591.97;6224154;28;20236;-73
2022/10/26 10:10:58;;;;;;;2.50;2.30;;;;;;;29.61;32.23;101593.19;6221643;28;20631;-73
2022/10/26 10:14:19;;;;;;;2.92;2.28;;;;;;;28.30;34.42;101600.06;6228012;28;20233;-73
2022/10/26 10:17:40;;;;;;;3.33;1.90;;;;;;;26.64;38.60;101587.25;6228759;28;20225;-70
2022/10/26 10:21:04;;;;;;;2.28;2.00;;;;;;;29.18;33.86;101582.44;6232118;28;20232;-69
2022/10/26 10:24:28;;;;;;;2.47;2.25;;;;;;;29.26;33.52;101584.03;6205355;28;20230;-70
2022/10/26 10:27:53;;;;;;;1.95;1.85;;;;;;;29.45;32.10;101587.53;6212659;28;20237;-70
2022/10/26 10:31:29;;;;;;;2.75;2.05;;;;;;;28.48;34.55;101592.53;6217369;28;20687;-72
2022/10/26 10:34:52;;;;;;;3.50;2.70;;;;;;;27.20;35.85;101603.03;6218602;28;20256;-72
2022/10/26 10:38:18;;;;;;;2.92;2.20;;;;;;;28.46;34.23;101597.47;6218993;28;20232;-71
2022/10/26 10:41:39;;;;;;;2.72;1.83;;;;;;;25.69;39.89;101603.91;6218863;28;20232;-75
2022/10/26 10:45:01;;;;;;;2.10;1.90;;;;;;;24.58;42.66;101598.41;6222360;28;20228;-74
2022/10/26 10:48:25;;;;;;;3.05;2.60;;;;;;;28.77;34.33;101592.75;6212754;28;20315;-74
2022/10/26 10:51:48;;;;;;;2.03;1.70;;;;;;;29.98;32.57;101583.47;6211680;28;20282;-75
2022/10/26 10:55:19;;;;;;;5.32;2.63;;;;;;;31.10;31.42;101581.72;6228142;28;20500;-75
2022/10/26 10:58:49;;;;;;;2.22;2.10;;;;;;;30.13;31.38;101590.41;6225570;28;20229;-75
2022/10/26 11:02:55;;;;;;;4.65;2.78;;;;;;;29.81;33.63;101579.75;6222821;28;20235;-74
2022/10/26 11:06:19;;;;;;;5.53;3.00;;;;;;;29.36;32.99;101581.50;6224236;28;20228;-74
2022/10/26 11:09:43;;;;;;;3.63;2.30;;;;;;;29.16;33.16;101581.03;6228960;28;20240;-74
2022/10/26 11:13:16;;;;;;;2.50;2.15;;;;;;;30.37;31.97;101583.72;6232125;28;20241;-75
2022/10/26 11:16:43;;;;;;;2.80;2.58;;;;;;;29.79;32.54;101583.91;6210854;28;20292;-74
2022/10/26 11:20:10;;;;;;;2.67;2.13;;;;;;;29.00;34.07;101585.31;6225473;28;20228;-75
2022/10/26 11:23:37;;;;;;;6.63;2.22;;;;;;;30.12;33.19;101586.81;6222594;28;20319;-75
2022/10/26 11:27:04;;;;;;;3.00;2.63;;;;;;;28.72;34.53;101585.16;6222962;28;20232;-74
2022/10/26 11:30:29;;;;;;;7.22;2.28;;;;;;;27.57;37.84;101582.63;6229650;28;21133;-74
2022/10/26 11:34:05;;;;;;;1.85;1.70;;;;;;;28.77;35.87;101573.31;6232317;28;20311;-74
2022/10/26 11:37:32;;;;;;;2.25;2.05;;;;;;;29.84;32.90;101562.59;6230828;28;20232;-73
2022/10/26 11:41:00;;;;;;;5.03;2.00;;;;;;;28.44;34.72;101584.91;6209489;28;20252;-72
2022/10/26 11:44:30;;;;;;;2.83;2.15;;;;;;;30.15;32.70;101577.09;6237987;28;20622;-74
2022/10/26 11:47:57;;;;;;;2.13;1.92;;;;;;;29.98;33.04;101582.59;6206707;28;20227;-73
2022/10/26 11:51:23;;;;;;;2.17;1.95;;;;;;;30.95;32.61;101573.09;6226480;28;20228;-74
2022/10/26 11:54:50;;;;;;;2.42;2.20;;;;;;;28.62;35.26;101573.78;6226259;28;20251;-73
2022/10/26 11:58:12;;;;;;;3.35;1.63;;;;;;;31.63;30.89;101577.47;6230495;28;20240;-74
2022/10/26 12:01:34;;;;;;;3.28;2.53;;;;;;;32.01;30.49;101575.53;6227708;28;20235;-74
2022/10/26 12:05:01;;;;;;;3.55;1.95;;;;;;;32.97;29.27;101573.72;6225085;28;20247;-73
2022/10/26 12:08:27;;;;;;;2.15;1.77;;;;;;;32.66;29.75;101577.38;6227375;28;20677;-73
2022/10/26 12:11:53;;;;;;;2.33;2.13;;;;;;;28.65;36.22;101575.22;6219238;28;20236;-73
2022/10/26 12:15:23;;;;;;;4.47;1.95;;;;;;;25.34;42.42;101594.19;6226751;28;20228;-73
2022/10/26 12:18:49;;;;;;;3.22;1.35;;;;;;;25.14;43.17;101590.59;6214444;28;20235;-74
2022/10/26 12:22:14;;;;;;;2.65;1.73;;;;;;;25.41;42.67;101586.75;6223627;28;20240;-74
2022/10/26 12:25:35;;;;;;;1.77;1.38;;;;;;;23.18;48.41;101589.88;6229794;28;20236;-74
2022/10/26 12:29:13;;;;;;;1.58;1.23;;;;;;;21.88;51.48;101591.13;6229732;28;20576;-74
2022/10/26 12:32:50;;;;;;;1.30;1.20;;;;;;;21.23;53.57;101596.53;6225874;28;20707;-74
2022/10/26 12:36:44;;;;;;;2.78;1.40;;;;;;;22.18;51.09;101600.16;6216798;28;20347;-73
2022/10/26 12:40:41;;;;;;;5.38;1.70;;;;;;;22.98;49.70;101598.88;6223825;28;20240;-73
2022/10/26 12:44:24;;;;;;;1.58;1.25;;;;;;;22.89;50.35;101600.06;6231756;28;20240;-74
2022/10/26 12:48:03;;;;;;;3.50;1.45;;;;;;;22.03;51.72;101594.69;6227610;28;20228;-75
2022/10/26 12:51:42;;;;;;;2.45;1.60;;;;;;;21.74;52.46;101602.94;6218302;28;20323;-74
2022/10/26 12:55:30;;;;;;;4.00;2.58;;;;;;;21.00;55.05;101614.03;6225986;28;20260;-75
2022/10/26 12:59:08;;;;;;;3.03;1.67;;;;;;;21.24;55.13;101606.44;6222986;28;20261;-74
2022/10/26 13:02:42;;;;;;;3.65;1.73;;;;;;;21.06;56.23;101607.84;6221357;28;20270;-73
2022/10/26 13:06:45;;;;;;;3.17;1.30;;;;;;;20.65;56.67;101610.91;6218583;28;20225;-73
2022/10/26 13:10:19;;;;;;;1.58;0.90;;;;;;;21.93;52.98;101591.41;6214254;28;20232;-73
2022/10/26 13:13:41;;;;;;;1.40;1.05;;;;;;;21.88;53.19;101593.03;6223249;28;20248;-73
2022/10/26 13:17:05;;;;;;;2.78;1.20;;;;;;;21.12;55.52;101601.63;6233672;28;20224;-73
2022/10/26 13:20:27;;;;;;;2.03;1.58;;;;;;;20.65;57.17;101594.47;6232124;28;20232;-73
2022/10/26 13:23:57;;;;;;;5.57;1.63;;;;;;;20.37;58.61;101595.22;6216712;28;20244;-73
2022/10/26 13:27:42;;;;;;;2.30;1.23;;;;;;;20.58;57.86;101596.25;6235470;28;20236;-72
2022/10/26 13:31:03;;;;;;;1.50;1.40;;;;;;;20.45;58.06;101592.41;6230153;28;20223;-72
2022/10/26 13:34:29;;;;;;;1.63;1.42;;;;;;;20.12;59.24;101597.22;6234560;28;20745;-73
2022/10/26 13:37:54;;;;;;;2.97;1.50;;;;;;;20.69;58.13;101593.06;6230487;28;20224;-72
2022/10/26 13:41:27;;;;;;;3.78;2.33;;;;;;;20.48;58.15;101589.31;6234445;28;20259;-73
2022/10/26 13:44:53;;;;;;;1.90;1.65;;;;;;;20.34;58.69;101592.84;6242244;28;20228;-73
2022/10/26 13:48:18;;;;;;;5.03;1.40;;;;;;;20.14;59.37;101594.31;6231981;28;20311;-73
2022/10/26 13:51:46;;;;;;;2.47;1.52;;;;;;;20.50;59.02;101587.25;6229595;28;20244;-72
2022/10/26 13:55:14;;;;;;;1.63;1.50;;;;;;;20.81;57.75;101592.63;6242558;28;20224;-73
2022/10/26 13:58:42;;;;;;;3.63;1.20;;;;;;;20.59;57.71;101580.66;6238821;28;20244;-73
2022/10/26 14:02:07;;;;;;;1.90;1.33;;;;;;;20.68;58.57;101580.41;6228062;28;20318;-73
2022/10/26 14:05:28;;;;;;;3.03;1.90;;;;;;;20.49;58.55;101582.78;6232950;28;20237;-73
2022/10/26 14:08:53;;;;;;;1.50;1.20;;;;;;;20.97;57.76;101582.34;6219760;28;20240;-73
2022/10/26 14:12:14;;;;;;;2.65;1.30;;;;;;;19.86;60.55;101589.31;6235851;28;20252;-72
2022/10/26 14:15:36;;;;;;;1.42;1.10;;;;;;;19.52;61.94;101593.44;6237970;28;20239;-73
2022/10/26 14:18:57;;;;;;;1.85;1.20;;;;;;;19.54;62.06;101591.38;6241521;28;20220;-73
2022/10/26 14:22:21;;;;;;;0.77;0.77;;;;;;;20.28;59.72;101596.28;6233659;28;20509;-72
2022/10/26 14:25:53;;;;;;;2.80;1.63;;;;;;;20.57;59.00;101604.63;6229945;28;20529;-73
2022/10/26 14:29:17;;;;;;;2.67;1.42;;;;;;;21.24;57.44;101591.88;6232283;28;20967;-73
2022/10/26 14:32:38;;;;;;;1.20;0.95;;;;;;;23.03;52.44;101596.34;6232799;28;20224;-73
2022/10/26 14:35:59;;;;;;;1.90;1.08;;;;;;;22.50;52.46;101599.66;6231450;28;20232;-73
2022/10/26 14:39:30;;;;;;;1.25;0.73;;;;;;;21.33;56.15;101609.97;6229844;28;20710;-75
2022/10/26 14:42:55;;;;;;;2.00;1.85;;;;;;;19.81;60.87;101615.53;6230476;28;20232;-74
2022/10/26 14:46:19;;;;;;;1.45;0.68;;;;;;;19.30;63.40;101610.53;6232782;28;20521;-73
2022/10/26 14:49:46;;;;;;;3.13;2.28;;;;;;;18.60;66.15;101626.69;6231735;28;20263;-74
2022/10/26 14:53:14;;;;;;;5.28;1.70;;;;;;;18.64;66.07;101621.72;6229414;28;21203;-74
2022/10/26 14:56:40;;;;;;;3.35;1.30;;;;;;;18.66;65.96;101622.41;6233687;28;20641;-74
2022/10/26 15:00:11;;;;;;;4.32;2.00;;;;;;;18.48;66.58;101617.13;6229292;28;20228;-73
2022/10/26 15:03:32;;;;;;;4.38;1.98;;;;;;;18.47;66.58;101642.69;6230479;28;20228;-75
2022/10/26 15:07:00;;;;;;;1.45;0.85;;;;;;;18.62;66.30;101638.28;6210179;28;20232;-73
2022/10/26 15:10:47;;;;;;;3.33;1.00;;;;;;;18.54;66.49;101643.75;6225532;28;20590;-73
2022/10/26 15:14:12;;;;;;;2.58;1.00;;;;;;;18.27;67.61;101636.66;6230550;28;20344;-73
2022/10/26 15:17:39;;;;;;;3.50;1.08;;;;;;;18.23;67.57;101643.47;6214806;28;20326;-73
2022/10/26 15:21:00;;;;;;;1.35;1.23;;;;;;;17.89;68.95;101652.75;6223877;28;20659;-74
2022/10/26 15:24:30;;;;;;;3.42;1.27;;;;;;;18.11;68.06;101644.81;6229555;28;20228;-73
2022/10/26 15:27:51;;;;;;;2.95;1.65;;;;;;;18.02;68.65;101651.25;6233307;28;20224;-73
2022/10/26 15:31:28;;;;;;;1.48;1.15;;;;;;;17.70;69.97;101648.41;6219932;28;20839;-73
2022/10/26 15:35:20;;;;;;;2.65;1.23;;;;;;;17.67;70.00;101647.88;6219474;28;20802;-73
2022/10/26 15:38:42;;;;;;;1.85;1.35;;;;;;;17.53;70.54;101649.31;6224911;28;20236;-73
2022/10/26 15:42:03;;;;;;;2.40;1.48;;;;;;;17.35;71.13;101651.25;6222512;28;20219;-74
2022/10/26 15:45:26;;;;;;;3.60;1.20;;;;;;;17.35;71.18;101660.28;6222192;28;20237;-73
2022/10/26 15:48:53;;;;;;;1.42;1.33;;;;;;;17.25;71.45;101656.78;6216933;28;20233;-72
2022/10/26 15:52:16;;;;;;;2.83;1.75;;;;;;;17.26;71.44;101650.34;6208045;28;20237;-74
2022/10/26 15:55:37;;;;;;;2.28;1.73;;;;;;;17.13;71.97;101662.66;6228968;28;20233;-74
2022/10/26 15:58:58;;;;;;;1.70;1.60;;;;;;;17.00;72.24;101663.06;6222110;28;20553;-74